sensor_id;sensor_type;location;lat;lon;timestamp;temperature;humidity
76168;DHT22;64927;48.214;16.378;2024-03-02T00:00:51;10.80;75.30
76168;DHT22;64927;48.214;16.378;2024-03-02T00:03:18;10.70;75.50
76168;DHT22;64927;48.214;16.378;2024-03-02T00:05:50;10.70;75.50
76168;DHT22;64927;48.214;16.378;2024-03-02T00:08:23;10.70;75.30
76168;DHT22;64927;48.214;16.378;2024-03-02T00:10:59;10.70;75.50
76168;DHT22;64927;48.214;16.378;2024-03-02T00:13:26;10.70;75.50
76168;DHT22;64927;48.214;16.378;2024-03-02T00:15:53;10.70;75.50
76168;DHT22;64927;48.214;16.378;2024-03-02T00:18:34;10.60;75.50
76168;DHT22;64927;48.214;16.378;2024-03-02T00:21:00;10.60;75.70
76168;DHT22;64927;48.214;16.378;2024-03-02T00:23:33;10.60;75.60
76168;DHT22;64927;48.214;16.378;2024-03-02T00:26:01;10.60;75.90
76168;DHT22;64927;48.214;16.378;2024-03-02T00:28:38;10.60;75.90
76168;DHT22;64927;48.214;16.378;2024-03-02T00:31:08;10.60;75.80
76168;DHT22;64927;48.214;16.378;2024-03-02T00:33:35;10.60;75.90
76168;DHT22;64927;48.214;16.378;2024-03-02T00:36:05;10.50;75.60
76168;DHT22;64927;48.214;16.378;2024-03-02T00:38:32;10.60;76.00
76168;DHT22;64927;48.214;16.378;2024-03-02T00:41:04;10.50;76.30
76168;DHT22;64927;48.214;16.378;2024-03-02T00:46:19;10.40;77.30
76168;DHT22;64927;48.214;16.378;2024-03-02T00:48:55;10.40;76.30
76168;DHT22;64927;48.214;16.378;2024-03-02T00:51:23;10.40;76.00
76168;DHT22;64927;48.214;16.378;2024-03-02T00:53:49;10.40;75.90
76168;DHT22;64927;48.214;16.378;2024-03-02T00:56:16;10.30;75.90
76168;DHT22;64927;48.214;16.378;2024-03-02T00:58:42;10.30;76.10
76168;DHT22;64927;48.214;16.378;2024-03-02T01:01:07;10.30;75.90
76168;DHT22;64927;48.214;16.378;2024-03-02T01:03:33;10.30;75.80
76168;DHT22;64927;48.214;16.378;2024-03-02T01:05:59;10.20;76.30
76168;DHT22;64927;48.214;16.378;2024-03-02T01:08:25;10.30;76.60
76168;DHT22;64927;48.214;16.378;2024-03-02T01:10:51;10.30;76.50
76168;DHT22;64927;48.214;16.378;2024-03-02T01:13:17;10.30;76.40
76168;DHT22;64927;48.214;16.378;2024-03-02T01:15:43;10.30;76.20
76168;DHT22;64927;48.214;16.378;2024-03-02T01:18:09;10.30;76.20
76168;DHT22;64927;48.214;16.378;2024-03-02T01:20:34;10.30;75.70
76168;DHT22;64927;48.214;16.378;2024-03-02T01:23:00;10.20;76.10
76168;DHT22;64927;48.214;16.378;2024-03-02T01:25:26;10.30;76.70
76168;DHT22;64927;48.214;16.378;2024-03-02T01:27:51;10.30;76.90
76168;DHT22;64927;48.214;16.378;2024-03-02T01:30:17;10.30;76.80
76168;DHT22;64927;48.214;16.378;2024-03-02T01:32:43;10.30;76.90
76168;DHT22;64927;48.214;16.378;2024-03-02T01:35:08;10.40;77.00
76168;DHT22;64927;48.214;16.378;2024-03-02T01:37:34;10.40;76.80
76168;DHT22;64927;48.214;16.378;2024-03-02T01:40:00;10.40;76.70
76168;DHT22;64927;48.214;16.378;2024-03-02T01:42:26;10.40;76.70
76168;DHT22;64927;48.214;16.378;2024-03-02T01:44:52;10.50;76.60
76168;DHT22;64927;48.214;16.378;2024-03-02T01:47:18;10.50;76.40
76168;DHT22;64927;48.214;16.378;2024-03-02T01:49:43;10.40;76.80
76168;DHT22;64927;48.214;16.378;2024-03-02T01:52:09;10.30;77.10
76168;DHT22;64927;48.214;16.378;2024-03-02T01:54:34;10.30;77.40
76168;DHT22;64927;48.214;16.378;2024-03-02T01:57:00;10.20;77.40
76168;DHT22;64927;48.214;16.378;2024-03-02T01:59:26;10.20;77.70
76168;DHT22;64927;48.214;16.378;2024-03-02T02:01:52;10.20;77.70
76168;DHT22;64927;48.214;16.378;2024-03-02T02:04:17;10.30;77.70
76168;DHT22;64927;48.214;16.378;2024-03-02T02:06:46;10.30;77.40
76168;DHT22;64927;48.214;16.378;2024-03-02T02:09:12;10.20;77.40
76168;DHT22;64927;48.214;16.378;2024-03-02T02:11:38;10.20;77.40
76168;DHT22;64927;48.214;16.378;2024-03-02T02:14:03;10.20;77.10
76168;DHT22;64927;48.214;16.378;2024-03-02T02:16:29;10.30;77.20
76168;DHT22;64927;48.214;16.378;2024-03-02T02:18:55;10.30;77.20
76168;DHT22;64927;48.214;16.378;2024-03-02T02:21:23;10.20;77.10
76168;DHT22;64927;48.214;16.378;2024-03-02T02:23:48;10.20;77.10
76168;DHT22;64927;48.214;16.378;2024-03-02T02:26:15;10.20;77.20
76168;DHT22;64927;48.214;16.378;2024-03-02T02:28:41;10.20;77.20
76168;DHT22;64927;48.214;16.378;2024-03-02T02:31:15;10.10;77.20
76168;DHT22;64927;48.214;16.378;2024-03-02T02:33:41;10.10;77.10
76168;DHT22;64927;48.214;16.378;2024-03-02T02:36:07;10.10;77.30
76168;DHT22;64927;48.214;16.378;2024-03-02T02:38:33;10.10;76.80
76168;DHT22;64927;48.214;16.378;2024-03-02T02:41:00;10.10;76.70
76168;DHT22;64927;48.214;16.378;2024-03-02T02:43:26;9.90;76.60
76168;DHT22;64927;48.214;16.378;2024-03-02T02:45:54;9.90;77.10
76168;DHT22;64927;48.214;16.378;2024-03-02T02:48:19;9.90;77.30
76168;DHT22;64927;48.214;16.378;2024-03-02T02:50:45;10.00;77.10
76168;DHT22;64927;48.214;16.378;2024-03-02T02:53:10;10.00;77.20
76168;DHT22;64927;48.214;16.378;2024-03-02T02:55:36;10.00;76.80
76168;DHT22;64927;48.214;16.378;2024-03-02T02:58:08;10.00;77.10
76168;DHT22;64927;48.214;16.378;2024-03-02T03:00:33;10.10;76.90
76168;DHT22;64927;48.214;16.378;2024-03-02T03:02:59;10.10;76.60
76168;DHT22;64927;48.214;16.378;2024-03-02T03:05:27;10.20;76.90
76168;DHT22;64927;48.214;16.378;2024-03-02T03:07:53;10.20;76.40
76168;DHT22;64927;48.214;16.378;2024-03-02T03:10:18;10.20;76.80
76168;DHT22;64927;48.214;16.378;2024-03-02T03:12:48;10.10;76.70
76168;DHT22;64927;48.214;16.378;2024-03-02T03:15:14;10.10;77.20
76168;DHT22;64927;48.214;16.378;2024-03-02T03:17:41;10.00;77.30
76168;DHT22;64927;48.214;16.378;2024-03-02T03:20:07;10.00;77.50
76168;DHT22;64927;48.214;16.378;2024-03-02T03:22:36;10.00;77.60
76168;DHT22;64927;48.214;16.378;2024-03-02T03:25:02;10.10;77.40
76168;DHT22;64927;48.214;16.378;2024-03-02T03:27:29;10.10;76.80
76168;DHT22;64927;48.214;16.378;2024-03-02T03:29:54;10.10;76.80
76168;DHT22;64927;48.214;16.378;2024-03-02T03:32:22;10.00;77.10
76168;DHT22;64927;48.214;16.378;2024-03-02T03:34:48;9.90;77.20
76168;DHT22;64927;48.214;16.378;2024-03-02T03:37:14;9.80;77.50
76168;DHT22;64927;48.214;16.378;2024-03-02T03:39:40;9.80;77.50
76168;DHT22;64927;48.214;16.378;2024-03-02T03:42:10;9.80;78.00
76168;DHT22;64927;48.214;16.378;2024-03-02T03:44:38;9.70;78.10
76168;DHT22;64927;48.214;16.378;2024-03-02T03:47:07;9.70;78.30
76168;DHT22;64927;48.214;16.378;2024-03-02T03:49:32;9.70;78.50
76168;DHT22;64927;48.214;16.378;2024-03-02T03:51:58;9.60;78.40
76168;DHT22;64927;48.214;16.378;2024-03-02T03:54:28;9.60;78.50
76168;DHT22;64927;48.214;16.378;2024-03-02T03:56:54;9.60;78.50
76168;DHT22;64927;48.214;16.378;2024-03-02T03:59:20;9.60;78.60
76168;DHT22;64927;48.214;16.378;2024-03-02T04:01:45;9.50;78.80
76168;DHT22;64927;48.214;16.378;2024-03-02T04:04:11;9.50;79.10
76168;DHT22;64927;48.214;16.378;2024-03-02T04:06:36;9.50;79.00
76168;DHT22;64927;48.214;16.378;2024-03-02T04:09:02;9.50;78.40
76168;DHT22;64927;48.214;16.378;2024-03-02T04:11:29;9.50;78.50
76168;DHT22;64927;48.214;16.378;2024-03-02T04:13:57;9.50;78.00
76168;DHT22;64927;48.214;16.378;2024-03-02T04:16:22;9.40;78.60
76168;DHT22;64927;48.214;16.378;2024-03-02T04:18:48;9.40;78.80
76168;DHT22;64927;48.214;16.378;2024-03-02T04:21:13;9.50;78.90
76168;DHT22;64927;48.214;16.378;2024-03-02T04:23:39;9.50;78.80
76168;DHT22;64927;48.214;16.378;2024-03-02T04:26:05;9.50;78.60
76168;DHT22;64927;48.214;16.378;2024-03-02T04:28:30;9.50;79.10
76168;DHT22;64927;48.214;16.378;2024-03-02T04:30:56;9.50;78.90
76168;DHT22;64927;48.214;16.378;2024-03-02T04:33:21;9.50;78.60
76168;DHT22;64927;48.214;16.378;2024-03-02T04:35:47;9.50;78.40
76168;DHT22;64927;48.214;16.378;2024-03-02T04:38:13;9.40;77.70
76168;DHT22;64927;48.214;16.378;2024-03-02T04:40:38;9.40;78.30
76168;DHT22;64927;48.214;16.378;2024-03-02T04:43:04;9.40;78.40
76168;DHT22;64927;48.214;16.378;2024-03-02T04:45:32;9.40;78.70
76168;DHT22;64927;48.214;16.378;2024-03-02T04:47:58;9.40;78.80
76168;DHT22;64927;48.214;16.378;2024-03-02T04:50:23;9.40;79.00
76168;DHT22;64927;48.214;16.378;2024-03-02T04:52:49;9.40;78.90
76168;DHT22;64927;48.214;16.378;2024-03-02T04:55:14;9.40;78.80
76168;DHT22;64927;48.214;16.378;2024-03-02T04:57:58;9.40;78.70
76168;DHT22;64927;48.214;16.378;2024-03-02T05:00:24;9.30;78.80
76168;DHT22;64927;48.214;16.378;2024-03-02T05:02:50;9.20;78.80
76168;DHT22;64927;48.214;16.378;2024-03-02T05:05:18;9.10;79.20
76168;DHT22;64927;48.214;16.378;2024-03-02T05:07:44;9.00;79.40
76168;DHT22;64927;48.214;16.378;2024-03-02T05:10:10;9.00;80.10
76168;DHT22;64927;48.214;16.378;2024-03-02T05:12:36;8.80;80.40
76168;DHT22;64927;48.214;16.378;2024-03-02T05:15:22;8.80;81.30
76168;DHT22;64927;48.214;16.378;2024-03-02T05:17:48;8.80;81.40
76168;DHT22;64927;48.214;16.378;2024-03-02T05:20:13;8.80;81.30
76168;DHT22;64927;48.214;16.378;2024-03-02T05:22:39;8.80;82.00
76168;DHT22;64927;48.214;16.378;2024-03-02T05:25:06;8.90;82.20
76168;DHT22;64927;48.214;16.378;2024-03-02T05:27:35;8.70;81.80
76168;DHT22;64927;48.214;16.378;2024-03-02T05:30:04;8.80;82.10
76168;DHT22;64927;48.214;16.378;2024-03-02T05:32:32;8.70;81.60
76168;DHT22;64927;48.214;16.378;2024-03-02T05:34:57;8.70;82.90
76168;DHT22;64927;48.214;16.378;2024-03-02T05:37:23;8.70;82.10
76168;DHT22;64927;48.214;16.378;2024-03-02T05:39:48;8.70;82.90
76168;DHT22;64927;48.214;16.378;2024-03-02T05:42:16;8.80;82.30
76168;DHT22;64927;48.214;16.378;2024-03-02T05:44:43;8.70;82.20
76168;DHT22;64927;48.214;16.378;2024-03-02T05:47:08;8.80;82.10
76168;DHT22;64927;48.214;16.378;2024-03-02T05:49:34;8.60;81.80
76168;DHT22;64927;48.214;16.378;2024-03-02T05:52:03;8.60;82.20
76168;DHT22;64927;48.214;16.378;2024-03-02T05:54:28;8.70;82.20
76168;DHT22;64927;48.214;16.378;2024-03-02T05:56:54;8.70;81.90
76168;DHT22;64927;48.214;16.378;2024-03-02T05:59:19;8.70;81.20
76168;DHT22;64927;48.214;16.378;2024-03-02T06:01:46;8.70;81.30
76168;DHT22;64927;48.214;16.378;2024-03-02T06:04:12;8.80;80.80
76168;DHT22;64927;48.214;16.378;2024-03-02T06:06:41;8.80;81.00
76168;DHT22;64927;48.214;16.378;2024-03-02T06:09:07;8.80;80.30
76168;DHT22;64927;48.214;16.378;2024-03-02T06:11:37;8.80;80.10
76168;DHT22;64927;48.214;16.378;2024-03-02T06:14:04;8.80;80.00
76168;DHT22;64927;48.214;16.378;2024-03-02T06:16:30;8.80;80.30
76168;DHT22;64927;48.214;16.378;2024-03-02T06:18:56;8.80;81.00
76168;DHT22;64927;48.214;16.378;2024-03-02T06:21:23;8.70;81.10
76168;DHT22;64927;48.214;16.378;2024-03-02T06:23:51;8.70;81.70
76168;DHT22;64927;48.214;16.378;2024-03-02T06:26:17;8.80;82.20
76168;DHT22;64927;48.214;16.378;2024-03-02T06:28:44;8.80;82.60
76168;DHT22;64927;48.214;16.378;2024-03-02T06:31:12;8.80;82.50
76168;DHT22;64927;48.214;16.378;2024-03-02T06:33:38;8.90;83.00
76168;DHT22;64927;48.214;16.378;2024-03-02T06:36:04;9.00;82.60
76168;DHT22;64927;48.214;16.378;2024-03-02T06:38:30;9.00;82.70
76168;DHT22;64927;48.214;16.378;2024-03-02T06:40:58;9.10;82.80
76168;DHT22;64927;48.214;16.378;2024-03-02T06:43:24;9.20;82.60
76168;DHT22;64927;48.214;16.378;2024-03-02T06:45:51;9.30;82.20
76168;DHT22;64927;48.214;16.378;2024-03-02T06:48:19;9.20;80.90
76168;DHT22;64927;48.214;16.378;2024-03-02T06:50:49;9.20;81.40
76168;DHT22;64927;48.214;16.378;2024-03-02T06:53:15;9.20;81.50
76168;DHT22;64927;48.214;16.378;2024-03-02T06:55:45;9.20;81.40
76168;DHT22;64927;48.214;16.378;2024-03-02T06:58:12;9.30;81.50
76168;DHT22;64927;48.214;16.378;2024-03-02T07:00:38;9.30;81.00
76168;DHT22;64927;48.214;16.378;2024-03-02T07:03:03;9.30;80.70
76168;DHT22;64927;48.214;16.378;2024-03-02T07:05:29;9.30;80.80
76168;DHT22;64927;48.214;16.378;2024-03-02T07:07:55;9.40;80.60
76168;DHT22;64927;48.214;16.378;2024-03-02T07:10:23;9.40;81.00
76168;DHT22;64927;48.214;16.378;2024-03-02T07:12:49;9.40;80.90
76168;DHT22;64927;48.214;16.378;2024-03-02T07:15:15;9.50;80.90
76168;DHT22;64927;48.214;16.378;2024-03-02T07:17:52;9.60;80.80
76168;DHT22;64927;48.214;16.378;2024-03-02T07:20:20;9.70;80.20
76168;DHT22;64927;48.214;16.378;2024-03-02T07:22:46;9.70;80.00
76168;DHT22;64927;48.214;16.378;2024-03-02T07:25:12;9.70;79.80
76168;DHT22;64927;48.214;16.378;2024-03-02T07:27:38;9.80;79.70
76168;DHT22;64927;48.214;16.378;2024-03-02T07:30:05;9.80;78.90
76168;DHT22;64927;48.214;16.378;2024-03-02T07:32:30;9.90;79.00
76168;DHT22;64927;48.214;16.378;2024-03-02T07:34:56;9.90;78.90
76168;DHT22;64927;48.214;16.378;2024-03-02T07:37:23;9.80;78.90
76168;DHT22;64927;48.214;16.378;2024-03-02T07:39:49;9.90;79.30
76168;DHT22;64927;48.214;16.378;2024-03-02T07:42:14;9.80;78.90
76168;DHT22;64927;48.214;16.378;2024-03-02T07:44:44;9.90;79.20
76168;DHT22;64927;48.214;16.378;2024-03-02T07:47:13;9.90;78.50
76168;DHT22;64927;48.214;16.378;2024-03-02T07:49:38;9.90;78.20
76168;DHT22;64927;48.214;16.378;2024-03-02T07:52:04;9.90;77.90
76168;DHT22;64927;48.214;16.378;2024-03-02T07:54:30;9.90;78.00
76168;DHT22;64927;48.214;16.378;2024-03-02T07:56:57;9.90;77.90
76168;DHT22;64927;48.214;16.378;2024-03-02T07:59:26;10.10;77.90
76168;DHT22;64927;48.214;16.378;2024-03-02T08:01:51;10.10;77.30
76168;DHT22;64927;48.214;16.378;2024-03-02T08:04:17;10.10;77.20
76168;DHT22;64927;48.214;16.378;2024-03-02T08:06:43;10.20;77.10
76168;DHT22;64927;48.214;16.378;2024-03-02T08:09:10;10.30;76.80
76168;DHT22;64927;48.214;16.378;2024-03-02T08:11:36;10.40;76.20
76168;DHT22;64927;48.214;16.378;2024-03-02T08:14:02;10.40;75.60
76168;DHT22;64927;48.214;16.378;2024-03-02T08:16:29;10.50;75.30
76168;DHT22;64927;48.214;16.378;2024-03-02T08:18:54;10.60;75.00
76168;DHT22;64927;48.214;16.378;2024-03-02T08:21:23;10.70;75.30
76168;DHT22;64927;48.214;16.378;2024-03-02T08:23:49;10.80;74.40
76168;DHT22;64927;48.214;16.378;2024-03-02T08:26:15;10.80;74.70
76168;DHT22;64927;48.214;16.378;2024-03-02T08:28:43;10.80;74.90
76168;DHT22;64927;48.214;16.378;2024-03-02T08:31:11;10.80;74.40
76168;DHT22;64927;48.214;16.378;2024-03-02T08:33:37;10.80;74.30
76168;DHT22;64927;48.214;16.378;2024-03-02T08:36:03;10.80;74.20
76168;DHT22;64927;48.214;16.378;2024-03-02T08:38:29;10.80;74.70
76168;DHT22;64927;48.214;16.378;2024-03-02T08:40:57;10.80;74.90
76168;DHT22;64927;48.214;16.378;2024-03-02T08:43:23;10.90;75.00
76168;DHT22;64927;48.214;16.378;2024-03-02T08:45:49;10.90;74.60
76168;DHT22;64927;48.214;16.378;2024-03-02T08:48:16;11.00;74.30
76168;DHT22;64927;48.214;16.378;2024-03-02T08:50:41;11.10;74.20
76168;DHT22;64927;48.214;16.378;2024-03-02T08:53:07;11.20;74.00
76168;DHT22;64927;48.214;16.378;2024-03-02T08:55:32;11.40;72.90
76168;DHT22;64927;48.214;16.378;2024-03-02T08:57:58;11.50;72.40
76168;DHT22;64927;48.214;16.378;2024-03-02T09:00:26;11.50;72.20
76168;DHT22;64927;48.214;16.378;2024-03-02T09:02:54;11.60;72.10
76168;DHT22;64927;48.214;16.378;2024-03-02T09:05:20;11.70;71.80
76168;DHT22;64927;48.214;16.378;2024-03-02T09:07:46;11.80;70.80
76168;DHT22;64927;48.214;16.378;2024-03-02T09:10:12;11.80;71.00
76168;DHT22;64927;48.214;16.378;2024-03-02T09:12:38;11.90;71.50
76168;DHT22;64927;48.214;16.378;2024-03-02T09:15:04;11.90;70.50
76168;DHT22;64927;48.214;16.378;2024-03-02T09:17:31;11.90;71.00
76168;DHT22;64927;48.214;16.378;2024-03-02T09:19:57;12.00;71.40
76168;DHT22;64927;48.214;16.378;2024-03-02T09:22:24;12.30;70.10
76168;DHT22;64927;48.214;16.378;2024-03-02T09:24:50;12.40;69.50
76168;DHT22;64927;48.214;16.378;2024-03-02T09:27:18;12.60;69.20
76168;DHT22;64927;48.214;16.378;2024-03-02T09:29:43;12.60;68.40
76168;DHT22;64927;48.214;16.378;2024-03-02T09:32:15;12.60;68.80
76168;DHT22;64927;48.214;16.378;2024-03-02T09:34:41;12.70;68.70
76168;DHT22;64927;48.214;16.378;2024-03-02T09:37:07;12.70;68.40
76168;DHT22;64927;48.214;16.378;2024-03-02T09:39:35;12.70;68.20
76168;DHT22;64927;48.214;16.378;2024-03-02T09:42:01;12.70;68.40
76168;DHT22;64927;48.214;16.378;2024-03-02T09:44:26;12.70;68.20
76168;DHT22;64927;48.214;16.378;2024-03-02T09:46:52;12.60;68.10
76168;DHT22;64927;48.214;16.378;2024-03-02T09:49:20;12.50;68.90
76168;DHT22;64927;48.214;16.378;2024-03-02T09:51:49;12.50;69.60
76168;DHT22;64927;48.214;16.378;2024-03-02T09:54:16;12.50;69.60
76168;DHT22;64927;48.214;16.378;2024-03-02T09:56:42;12.40;70.00
76168;DHT22;64927;48.214;16.378;2024-03-02T09:59:07;12.30;70.70
76168;DHT22;64927;48.214;16.378;2024-03-02T10:01:33;12.50;70.10
76168;DHT22;64927;48.214;16.378;2024-03-02T10:03:59;12.50;70.50
76168;DHT22;64927;48.214;16.378;2024-03-02T10:06:26;12.50;70.80
76168;DHT22;64927;48.214;16.378;2024-03-02T10:08:53;12.40;70.30
76168;DHT22;64927;48.214;16.378;2024-03-02T10:11:35;12.70;70.20
76168;DHT22;64927;48.214;16.378;2024-03-02T10:16:34;12.80;70.10
76168;DHT22;64927;48.214;16.378;2024-03-02T10:21:42;12.90;69.40
76168;DHT22;64927;48.214;16.378;2024-03-02T10:24:08;12.90;69.20
76168;DHT22;64927;48.214;16.378;2024-03-02T10:26:34;13.00;69.50
76168;DHT22;64927;48.214;16.378;2024-03-02T10:28:59;13.30;69.30
76168;DHT22;64927;48.214;16.378;2024-03-02T10:31:26;13.40;68.40
76168;DHT22;64927;48.214;16.378;2024-03-02T10:33:55;13.50;68.10
76168;DHT22;64927;48.214;16.378;2024-03-02T10:36:23;13.50;67.40
76168;DHT22;64927;48.214;16.378;2024-03-02T10:38:49;13.60;67.70
76168;DHT22;64927;48.214;16.378;2024-03-02T10:41:26;13.70;67.60
76168;DHT22;64927;48.214;16.378;2024-03-02T10:43:56;13.70;67.30
76168;DHT22;64927;48.214;16.378;2024-03-02T10:46:30;13.70;67.00
76168;DHT22;64927;48.214;16.378;2024-03-02T10:48:57;13.70;67.30
76168;DHT22;64927;48.214;16.378;2024-03-02T10:51:25;13.60;67.10
76168;DHT22;64927;48.214;16.378;2024-03-02T10:53:52;13.60;67.30
76168;DHT22;64927;48.214;16.378;2024-03-02T10:56:23;13.50;67.80
76168;DHT22;64927;48.214;16.378;2024-03-02T10:58:59;13.60;68.20
76168;DHT22;64927;48.214;16.378;2024-03-02T11:01:35;13.60;67.50
76168;DHT22;64927;48.214;16.378;2024-03-02T11:04:04;13.50;67.60
76168;DHT22;64927;48.214;16.378;2024-03-02T11:06:32;13.50;68.00
76168;DHT22;64927;48.214;16.378;2024-03-02T11:09:02;13.60;68.10
76168;DHT22;64927;48.214;16.378;2024-03-02T11:11:32;13.70;68.10
76168;DHT22;64927;48.214;16.378;2024-03-02T11:14:01;13.60;68.30
76168;DHT22;64927;48.214;16.378;2024-03-02T11:16:37;13.70;68.70
76168;DHT22;64927;48.214;16.378;2024-03-02T11:19:13;13.70;67.90
76168;DHT22;64927;48.214;16.378;2024-03-02T11:21:39;13.80;68.00
76168;DHT22;64927;48.214;16.378;2024-03-02T11:27:05;13.80;68.00
76168;DHT22;64927;48.214;16.378;2024-03-02T11:32:05;13.90;67.70
76168;DHT22;64927;48.214;16.378;2024-03-02T11:34:32;13.90;67.80
76168;DHT22;64927;48.214;16.378;2024-03-02T11:36:59;13.90;67.70
76168;DHT22;64927;48.214;16.378;2024-03-02T11:39:27;13.90;67.70
76168;DHT22;64927;48.214;16.378;2024-03-02T11:41:53;13.90;67.30
76168;DHT22;64927;48.214;16.378;2024-03-02T11:44:21;13.70;67.90
76168;DHT22;64927;48.214;16.378;2024-03-02T11:46:59;13.70;68.20
76168;DHT22;64927;48.214;16.378;2024-03-02T11:49:56;13.70;67.70
76168;DHT22;64927;48.214;16.378;2024-03-02T11:52:22;13.80;67.30
76168;DHT22;64927;48.214;16.378;2024-03-02T11:54:49;13.80;67.10
76168;DHT22;64927;48.214;16.378;2024-03-02T11:57:18;13.80;67.10
76168;DHT22;64927;48.214;16.378;2024-03-02T11:59:44;13.80;67.20
76168;DHT22;64927;48.214;16.378;2024-03-02T12:02:18;13.70;67.10
76168;DHT22;64927;48.214;16.378;2024-03-02T12:04:45;13.60;67.90
76168;DHT22;64927;48.214;16.378;2024-03-02T12:07:12;13.60;67.90
76168;DHT22;64927;48.214;16.378;2024-03-02T12:09:38;13.60;67.80
76168;DHT22;64927;48.214;16.378;2024-03-02T12:12:08;13.60;67.70
76168;DHT22;64927;48.214;16.378;2024-03-02T12:14:36;13.60;68.00
76168;DHT22;64927;48.214;16.378;2024-03-02T12:17:03;13.60;67.70
76168;DHT22;64927;48.214;16.378;2024-03-02T12:19:29;13.70;68.00
76168;DHT22;64927;48.214;16.378;2024-03-02T12:21:56;13.60;68.10
76168;DHT22;64927;48.214;16.378;2024-03-02T12:24:22;13.60;68.40
76168;DHT22;64927;48.214;16.378;2024-03-02T12:26:51;13.60;68.50
76168;DHT22;64927;48.214;16.378;2024-03-02T12:29:19;13.70;68.40
76168;DHT22;64927;48.214;16.378;2024-03-02T12:31:45;13.70;68.20
76168;DHT22;64927;48.214;16.378;2024-03-02T12:34:15;13.70;68.50
76168;DHT22;64927;48.214;16.378;2024-03-02T12:36:43;13.80;68.00
76168;DHT22;64927;48.214;16.378;2024-03-02T12:39:13;13.90;67.60
76168;DHT22;64927;48.214;16.378;2024-03-02T12:41:39;14.00;67.50
76168;DHT22;64927;48.214;16.378;2024-03-02T12:44:05;14.00;67.20
76168;DHT22;64927;48.214;16.378;2024-03-02T12:46:34;14.00;67.40
76168;DHT22;64927;48.214;16.378;2024-03-02T12:49:08;14.00;67.60
76168;DHT22;64927;48.214;16.378;2024-03-02T12:51:35;14.10;67.50
76168;DHT22;64927;48.214;16.378;2024-03-02T12:54:01;14.30;66.50
76168;DHT22;64927;48.214;16.378;2024-03-02T12:56:29;14.40;66.00
76168;DHT22;64927;48.214;16.378;2024-03-02T12:58:55;14.60;65.40
76168;DHT22;64927;48.214;16.378;2024-03-02T13:01:23;14.80;64.70
76168;DHT22;64927;48.214;16.378;2024-03-02T13:03:50;14.80;64.20
76168;DHT22;64927;48.214;16.378;2024-03-02T13:06:28;14.70;64.30
76168;DHT22;64927;48.214;16.378;2024-03-02T13:08:54;14.70;64.60
76168;DHT22;64927;48.214;16.378;2024-03-02T13:11:21;14.70;64.10
76168;DHT22;64927;48.214;16.378;2024-03-02T13:13:48;14.60;64.10
76168;DHT22;64927;48.214;16.378;2024-03-02T13:16:14;14.60;64.30
76168;DHT22;64927;48.214;16.378;2024-03-02T13:18:41;14.60;64.40
76168;DHT22;64927;48.214;16.378;2024-03-02T13:21:10;14.40;64.90
76168;DHT22;64927;48.214;16.378;2024-03-02T13:23:36;14.30;65.10
76168;DHT22;64927;48.214;16.378;2024-03-02T13:26:06;14.20;65.50
76168;DHT22;64927;48.214;16.378;2024-03-02T13:28:32;14.20;65.70
76168;DHT22;64927;48.214;16.378;2024-03-02T13:30:58;14.20;65.80
76168;DHT22;64927;48.214;16.378;2024-03-02T13:33:26;14.30;65.20
76168;DHT22;64927;48.214;16.378;2024-03-02T13:35:52;14.30;65.20
76168;DHT22;64927;48.214;16.378;2024-03-02T13:38:19;14.20;65.90
76168;DHT22;64927;48.214;16.378;2024-03-02T13:40:49;14.20;66.30
76168;DHT22;64927;48.214;16.378;2024-03-02T13:43:19;14.30;65.70
76168;DHT22;64927;48.214;16.378;2024-03-02T13:45:47;14.40;65.10
76168;DHT22;64927;48.214;16.378;2024-03-02T13:48:13;14.30;65.40
76168;DHT22;64927;48.214;16.378;2024-03-02T13:50:40;14.40;65.20
76168;DHT22;64927;48.214;16.378;2024-03-02T13:53:08;14.50;64.70
76168;DHT22;64927;48.214;16.378;2024-03-02T13:55:34;14.50;65.00
76168;DHT22;64927;48.214;16.378;2024-03-02T13:58:00;14.40;65.10
76168;DHT22;64927;48.214;16.378;2024-03-02T14:00:25;14.60;64.90
76168;DHT22;64927;48.214;16.378;2024-03-02T14:02:54;14.50;64.80
76168;DHT22;64927;48.214;16.378;2024-03-02T14:05:22;14.50;64.90
76168;DHT22;64927;48.214;16.378;2024-03-02T14:07:52;14.50;64.80
76168;DHT22;64927;48.214;16.378;2024-03-02T14:10:17;14.60;64.90
76168;DHT22;64927;48.214;16.378;2024-03-02T14:12:47;14.60;64.60
76168;DHT22;64927;48.214;16.378;2024-03-02T14:15:15;14.50;64.80
76168;DHT22;64927;48.214;16.378;2024-03-02T14:17:41;14.50;64.90
76168;DHT22;64927;48.214;16.378;2024-03-02T14:20:08;14.30;65.40
76168;DHT22;64927;48.214;16.378;2024-03-02T14:22:37;14.30;65.60
76168;DHT22;64927;48.214;16.378;2024-03-02T14:25:04;14.30;65.70
76168;DHT22;64927;48.214;16.378;2024-03-02T14:27:30;14.20;65.60
76168;DHT22;64927;48.214;16.378;2024-03-02T14:29:56;14.10;66.10
76168;DHT22;64927;48.214;16.378;2024-03-02T14:32:21;14.10;66.20
76168;DHT22;64927;48.214;16.378;2024-03-02T14:34:49;14.00;66.20
76168;DHT22;64927;48.214;16.378;2024-03-02T14:37:17;14.00;66.10
76168;DHT22;64927;48.214;16.378;2024-03-02T14:39:43;14.00;66.40
76168;DHT22;64927;48.214;16.378;2024-03-02T14:42:09;13.90;66.40
76168;DHT22;64927;48.214;16.378;2024-03-02T14:44:35;13.90;66.10
76168;DHT22;64927;48.214;16.378;2024-03-02T14:47:02;13.90;66.60
76168;DHT22;64927;48.214;16.378;2024-03-02T14:49:29;13.80;67.00
76168;DHT22;64927;48.214;16.378;2024-03-02T14:51:59;13.70;67.20
76168;DHT22;64927;48.214;16.378;2024-03-02T14:54:24;13.70;67.20
76168;DHT22;64927;48.214;16.378;2024-03-02T14:56:52;13.70;67.40
76168;DHT22;64927;48.214;16.378;2024-03-02T14:59:18;13.70;67.20
76168;DHT22;64927;48.214;16.378;2024-03-02T15:01:51;13.70;67.30
76168;DHT22;64927;48.214;16.378;2024-03-02T15:04:17;13.60;67.50
76168;DHT22;64927;48.214;16.378;2024-03-02T15:06:46;13.60;67.90
76168;DHT22;64927;48.214;16.378;2024-03-02T15:09:12;13.50;68.90
76168;DHT22;64927;48.214;16.378;2024-03-02T15:11:38;13.40;69.20
76168;DHT22;64927;48.214;16.378;2024-03-02T15:14:04;13.30;69.10
76168;DHT22;64927;48.214;16.378;2024-03-02T15:16:30;13.30;69.20
76168;DHT22;64927;48.214;16.378;2024-03-02T15:18:55;13.30;69.50
76168;DHT22;64927;48.214;16.378;2024-03-02T15:21:23;13.30;69.30
76168;DHT22;64927;48.214;16.378;2024-03-02T15:23:49;13.40;69.30
76168;DHT22;64927;48.214;16.378;2024-03-02T15:26:17;13.30;69.30
76168;DHT22;64927;48.214;16.378;2024-03-02T15:28:43;13.40;69.30
76168;DHT22;64927;48.214;16.378;2024-03-02T15:31:08;13.40;69.20
76168;DHT22;64927;48.214;16.378;2024-03-02T15:33:34;13.40;69.10